Time;durP1;ratioP1;P1;durP2;ratioP2;P2;SDS_P1;SDS_P2;PMS_P1;PMS_P2;Temp;Humidity;BMP_temperature;BMP_pressure;BME280_temperature;BME280_humidity;BME280_pressure;Samples;Min_cycle;Max_cycle;Signal;HPM_P1;HPM_P2
2021/05/05 00:00:56;;;;;;;4.53;2.33;;;9.00;84.00;;;;;;8321045;28;20192;-73
2021/05/05 00:05:03;;;;;;;6.93;2.57;;;9.10;82.90;;;;;;8332839;28;20664;-73
2021/05/05 00:09:04;;;;;;;8.73;3.63;;;9.30;81.60;;;;;;8326860;28;20521;-73
2021/05/05 00:13:04;;;;;;;8.80;3.47;;;9.30;82.80;;;;;;8309223;28;20477;-73
2021/05/05 00:17:09;;;;;;;7.97;3.07;;;9.30;84.20;;;;;;8319475;28;21330;-73
2021/05/05 00:21:13;;;;;;;10.03;4.60;;;9.20;85.20;;;;;;8326162;28;20438;-73
2021/05/05 00:25:14;;;;;;;7.13;3.23;;;9.10;86.30;;;;;;8318553;28;20465;-73
2021/05/05 00:29:14;;;;;;;8.10;4.67;;;9.00;87.20;;;;;;8317104;28;20280;-73
2021/05/05 00:33:15;;;;;;;5.20;3.97;;;8.90;88.00;;;;;;8292635;28;20481;-73
2021/05/05 00:37:16;;;;;;;8.60;4.50;;;8.90;88.60;;;;;;8302464;28;20201;-73
2021/05/05 00:41:24;;;;;;;5.37;4.03;;;8.80;88.70;;;;;;8321402;28;20214;-73
2021/05/05 00:45:34;;;;;;;6.70;4.90;;;8.70;89.40;;;;;;8331143;28;20493;-73
2021/05/05 00:49:34;;;;;;;9.10;6.57;;;8.50;90.00;;;;;;8331073;28;20440;-73
2021/05/05 00:53:36;;;;;;;6.77;5.27;;;8.40;90.30;;;;;;8317403;28;20470;-73
2021/05/05 00:57:38;;;;;;;14.03;6.00;;;8.30;90.60;;;;;;8316179;28;20188;-73
2021/05/05 01:01:42;;;;;;;12.93;6.47;;;8.20;90.80;;;;;;8308733;28;20435;-73
2021/05/05 01:05:43;;;;;;;6.40;5.60;;;8.20;90.80;;;;;;8302236;28;20935;-73
2021/05/05 01:09:46;;;;;;;11.03;6.40;;;8.20;90.90;;;;;;8299347;28;21197;-73
2021/05/05 01:13:47;;;;;;;12.50;5.33;;;8.30;91.00;;;;;;8298592;28;20256;-74
2021/05/05 01:17:51;;;;;;;5.73;4.87;;;8.40;90.90;;;;;;8311936;28;20493;-72
2021/05/05 01:21:52;;;;;;;13.27;4.73;;;8.50;90.70;;;;;;8304561;28;20438;-72
2021/05/05 01:25:53;;;;;;;10.17;5.60;;;8.50;90.40;;;;;;8284719;28;20239;-73
2021/05/05 01:29:53;;;;;;;10.00;5.33;;;8.50;90.20;;;;;;8291346;28;20199;-73
2021/05/05 01:33:55;;;;;;;9.93;6.07;;;8.50;90.30;;;;;;8294348;28;20474;-73
2021/05/05 01:37:56;;;;;;;6.80;4.70;;;8.50;90.20;;;;;;8304617;28;20188;-73
2021/05/05 01:41:57;;;;;;;7.50;5.60;;;8.50;90.10;;;;;;8303957;28;20439;-73
2021/05/05 01:46:02;;;;;;;7.90;5.43;;;8.50;90.10;;;;;;8298648;28;20207;-73
2021/05/05 01:50:05;;;;;;;8.30;5.27;;;8.40;90.10;;;;;;8299724;28;21008;-73
2021/05/05 01:54:08;;;;;;;5.97;4.90;;;8.30;90.00;;;;;;8296634;28;20475;-72
2021/05/05 01:58:09;;;;;;;8.40;5.40;;;8.20;90.20;;;;;;8302225;28;20966;-73
2021/05/05 02:02:10;;;;;;;7.33;6.07;;;8.10;90.60;;;;;;8295588;28;20932;-73
2021/05/05 02:06:18;;;;;;;6.10;5.30;;;8.00;90.70;;;;;;8293770;28;20196;-73
2021/05/05 02:10:20;;;;;;;9.30;5.97;;;7.90;90.60;;;;;;8293449;28;20772;-72
2021/05/05 02:14:24;;;;;;;7.57;5.60;;;7.80;90.70;;;;;;8295737;28;20474;-74
2021/05/05 02:18:31;;;;;;;6.10;5.50;;;7.70;91.20;;;;;;8303312;28;20462;-73
2021/05/05 02:22:32;;;;;;;7.80;5.33;;;7.70;91.30;;;;;;8314939;28;20514;-73
2021/05/05 02:26:36;;;;;;;11.00;4.80;;;7.80;91.30;;;;;;8285441;28;20453;-73
2021/05/05 02:30:40;;;;;;;9.43;4.70;;;8.00;90.80;;;;;;8304161;28;20542;-73
2021/05/05 02:34:41;;;;;;;6.13;4.43;;;8.10;90.10;;;;;;8304855;28;20565;-73
2021/05/05 02:38:42;;;;;;;15.37;4.90;;;8.30;89.10;;;;;;8295643;28;20442;-73
2021/05/05 02:42:43;;;;;;;8.50;4.97;;;8.40;88.20;;;;;;8301303;28;20235;-74
2021/05/05 02:46:44;;;;;;;8.57;5.80;;;8.50;87.60;;;;;;8297747;28;20628;-73
2021/05/05 02:50:45;;;;;;;15.67;3.87;;;8.60;87.20;;;;;;8304614;28;20447;-73
2021/05/05 02:54:46;;;;;;;19.63;5.10;;;8.70;86.70;;;;;;8300425;28;20616;-73
2021/05/05 02:58:47;;;;;;;10.30;6.27;;;8.80;86.40;;;;;;8308440;28;20196;-73
2021/05/05 03:02:51;;;;;;;8.90;5.00;;;8.90;85.80;;;;;;8302893;28;20439;-73
2021/05/05 03:06:52;;;;;;;9.30;5.30;;;9.00;85.10;;;;;;8304772;28;20563;-73
2021/05/05 03:10:53;;;;;;;5.90;4.40;;;9.10;84.80;;;;;;8307262;28;20450;-73
2021/05/05 03:14:54;;;;;;;7.53;4.83;;;9.10;84.70;;;;;;8307052;28;20480;-73
2021/05/05 03:18:55;;;;;;;21.17;7.17;;;9.00;84.60;;;;;;8301683;28;20926;-73
2021/05/05 03:22:59;;;;;;;12.50;6.37;;;9.00;84.30;;;;;;8277741;28;20200;-73
2021/05/05 03:27:00;;;;;;;15.47;7.30;;;8.90;84.50;;;;;;8304858;28;20447;-73
2021/05/05 03:31:00;;;;;;;11.60;6.53;;;8.90;84.60;;;;;;8304401;28;20444;-72
2021/05/05 03:35:08;;;;;;;13.40;6.33;;;8.80;84.90;;;;;;8298533;28;20232;-73
2021/05/05 03:39:09;;;;;;;9.33;6.37;;;8.80;85.20;;;;;;8306014;28;20513;-73
2021/05/05 03:43:14;;;;;;;14.23;8.47;;;8.80;85.30;;;;;;8299683;28;20850;-73
2021/05/05 03:47:19;;;;;;;12.17;6.43;;;8.80;85.40;;;;;;8306815;28;21001;-73
2021/05/05 03:51:24;;;;;;;15.57;7.30;;;8.80;85.40;;;;;;8321363;28;20499;-73
2021/05/05 03:55:25;;;;;;;15.67;6.53;;;8.80;85.00;;;;;;8311393;28;20561;-73
2021/05/05 03:59:29;;;;;;;14.10;7.63;;;8.80;85.20;;;;;;8326090;28;20439;-72
2021/05/05 04:03:30;;;;;;;15.13;6.60;;;8.80;85.60;;;;;;8273374;28;20447;-72
2021/05/05 04:07:38;;;;;;;12.23;6.53;;;8.80;85.50;;;;;;8301182;28;20182;-72
2021/05/05 04:11:42;;;;;;;15.27;5.87;;;8.90;85.90;;;;;;8324178;28;20446;-72
2021/05/05 04:15:46;;;;;;;17.00;6.30;;;9.00;85.50;;;;;;8322106;28;20471;-72
2021/05/05 04:19:56;;;;;;;13.53;6.80;;;9.10;85.10;;;;;;8323594;28;20458;-74
2021/05/05 04:23:57;;;;;;;13.33;6.60;;;9.10;85.00;;;;;;8300936;28;20508;-72
2021/05/05 04:28:09;;;;;;;18.30;6.67;;;9.10;85.30;;;;;;8318716;28;20968;-73
2021/05/05 04:32:11;;;;;;;10.93;6.63;;;9.10;85.70;;;;;;8317521;28;20467;-73
2021/05/05 04:36:14;;;;;;;15.80;6.83;;;9.20;85.40;;;;;;8294119;28;20481;-73
2021/05/05 04:40:19;;;;;;;11.27;6.80;;;9.20;85.20;;;;;;8300833;28;20445;-73
2021/05/05 04:44:21;;;;;;;12.70;5.80;;;9.20;84.60;;;;;;8284111;28;20454;-73
2021/05/05 04:48:21;;;;;;;17.13;6.93;;;9.20;84.70;;;;;;8302853;28;21063;-74
2021/05/05 04:52:22;;;;;;;10.57;5.20;;;9.20;84.70;;;;;;8302782;28;20917;-72
2021/05/05 04:56:24;;;;;;;13.60;7.13;;;9.20;84.40;;;;;;8298507;28;20193;-73
2021/05/05 05:00:28;;;;;;;16.33;7.10;;;9.30;83.70;;;;;;8294927;28;21034;-74
2021/05/05 05:04:33;;;;;;;9.40;6.50;;;9.40;83.10;;;;;;8301091;28;20474;-73
2021/05/05 05:08:37;;;;;;;9.70;5.73;;;9.60;83.20;;;;;;8297284;28;20451;-73
2021/05/05 05:12:38;;;;;;;14.60;5.57;;;9.90;83.00;;;;;;8302935;28;20556;-73
2021/05/05 05:16:42;;;;;;;13.23;5.80;;;10.10;83.30;;;;;;8293575;28;20933;-73
2021/05/05 05:20:45;;;;;;;17.50;7.23;;;10.20;83.60;;;;;;8301264;28;20210;-73
2021/05/05 05:24:47;;;;;;;15.63;7.40;;;10.00;83.70;;;;;;8302582;28;20536;-73
2021/05/05 05:28:51;;;;;;;15.30;8.03;;;9.90;84.80;;;;;;8300791;28;21259;-74
2021/05/05 05:32:51;;;;;;;13.57;7.40;;;9.80;83.90;;;;;;8282132;28;20484;-73
2021/05/05 05:36:53;;;;;;;11.47;8.30;;;9.70;82.90;;;;;;8295019;28;20510;-74
2021/05/05 05:40:55;;;;;;;18.07;7.93;;;9.60;83.40;;;;;;8296138;28;20198;-73
2021/05/05 05:44:56;;;;;;;18.17;9.37;;;9.60;83.40;;;;;;8280329;28;20448;-73
2021/05/05 05:48:57;;;;;;;25.23;10.90;;;9.70;83.70;;;;;;8284275;28;20544;-73
2021/05/05 05:52:58;;;;;;;14.50;8.87;;;9.70;82.50;;;;;;8297169;28;20262;-72
2021/05/05 05:56:59;;;;;;;10.60;7.17;;;9.90;81.60;;;;;;8279391;28;20547;-73
2021/05/05 06:01:00;;;;;;;14.13;7.30;;;10.00;80.90;;;;;;8295821;28;20449;-74
2021/05/05 06:05:05;;;;;;;16.93;8.30;;;10.20;80.30;;;;;;8280356;28;20653;-73
2021/05/05 06:09:07;;;;;;;7.73;6.23;;;10.20;78.60;;;;;;8292918;28;20955;-74
2021/05/05 06:13:08;;;;;;;9.50;6.17;;;10.50;78.20;;;;;;8278551;28;20581;-74
2021/05/05 06:17:08;;;;;;;5.83;5.37;;;10.90;77.10;;;;;;8293052;28;21048;-75
2021/05/05 06:21:09;;;;;;;12.03;4.70;;;11.40;74.70;;;;;;8276403;28;21129;-74
2021/05/05 06:25:16;;;;;;;8.43;5.03;;;11.70;72.60;;;;;;8316853;28;20219;-74
2021/05/05 06:29:22;;;;;;;8.20;4.80;;;11.90;71.40;;;;;;8293303;28;20572;-74
2021/05/05 06:33:25;;;;;;;7.60;6.07;;;12.00;71.30;;;;;;8298367;28;20513;-74
2021/05/05 06:37:31;;;;;;;4.77;4.37;;;12.00;71.10;;;;;;8286581;28;20804;-73
2021/05/05 06:41:33;;;;;;;5.50;4.97;;;11.90;70.90;;;;;;8303667;28;20437;-73
2021/05/05 06:45:34;;;;;;;8.70;5.00;;;12.10;71.10;;;;;;8296917;28;20462;-73
2021/05/05 06:49:37;;;;;;;4.90;4.40;;;12.50;68.20;;;;;;8303788;28;20546;-72
2021/05/05 06:53:40;;;;;;;7.30;4.63;;;12.90;66.50;;;;;;8317530;28;20464;-73
2021/05/05 06:57:41;;;;;;;5.80;4.10;;;13.40;66.20;;;;;;8320888;28;20448;-73
2021/05/05 07:01:43;;;;;;;7.37;4.90;;;13.40;64.20;;;;;;8302733;28;20449;-72
2021/05/05 07:05:43;;;;;;;8.50;5.30;;;13.50;64.80;;;;;;8294617;28;20462;-74
2021/05/05 07:09:47;;;;;;;4.87;3.63;;;13.20;66.60;;;;;;8302858;28;20465;-75
2021/05/05 07:13:53;;;;;;;5.27;3.27;;;12.20;71.80;;;;;;8298332;28;20262;-75
2021/05/05 07:17:54;;;;;;;1.97;1.47;;;10.50;79.80;;;;;;8300754;28;20525;-74
2021/05/05 07:22:05;;;;;;;2.53;2.00;;;9.10;85.30;;;;;;8300956;28;20485;-76
2021/05/05 07:26:08;;;;;;;4.50;3.00;;;8.20;90.10;;;;;;8305613;28;20255;-75
2021/05/05 07:30:10;;;;;;;5.03;4.10;;;7.90;91.30;;;;;;8294658;28;20449;-74
2021/05/05 07:34:14;;;;;;;6.63;3.60;;;7.80;92.20;;;;;;8312531;28;20482;-74
2021/05/05 07:38:23;;;;;;;5.53;4.03;;;7.90;92.60;;;;;;8297694;28;20448;-75
2021/05/05 07:50:34;;;;;;;5.80;5.20;;;8.80;92.70;;;;;;8301232;28;20520;-75
2021/05/05 07:54:36;;;;;;;5.70;3.83;;;9.20;92.10;;;;;;8279953;28;20610;-74
2021/05/05 07:58:40;;;;;;;3.83;3.13;;;9.40;91.30;;;;;;8306056;28;20464;-75
2021/05/05 08:02:41;;;;;;;3.73;3.30;;;9.50;90.70;;;;;;8304058;28;21026;-75
2021/05/05 08:06:48;;;;;;;5.87;4.73;;;9.60;90.40;;;;;;8304495;28;21191;-75
2021/05/05 08:10:57;;;;;;;4.53;3.37;;;9.50;90.30;;;;;;8319492;28;20497;-77
2021/05/05 08:15:01;;;;;;;3.73;3.03;;;9.20;90.70;;;;;;8323410;28;20457;-75
2021/05/05 08:19:02;;;;;;;10.10;4.10;;;8.70;90.90;;;;;;8298716;28;20526;-76
2021/05/05 08:23:08;;;;;;;6.03;4.43;;;8.60;92.10;;;;;;8303315;28;20439;-75
2021/05/05 08:27:13;;;;;;;8.83;6.30;;;8.70;92.80;;;;;;8296007;28;20440;-76
2021/05/05 08:31:13;;;;;;;5.83;4.83;;;8.90;93.00;;;;;;8287677;28;20480;-76
2021/05/05 08:35:17;;;;;;;6.27;5.30;;;9.40;93.10;;;;;;8278921;28;20481;-75
2021/05/05 08:39:20;;;;;;;12.43;4.77;;;10.50;92.50;;;;;;8303335;28;20586;-75
2021/05/05 08:43:23;;;;;;;4.90;4.40;;;11.90;90.50;;;;;;8298478;28;20441;-75
2021/05/05 08:47:25;;;;;;;13.90;5.60;;;13.40;84.70;;;;;;8303622;28;20557;-75
2021/05/05 08:51:26;;;;;;;5.20;3.87;;;14.50;83.00;;;;;;8294935;28;20553;-76
2021/05/05 08:55:29;;;;;;;8.13;3.50;;;15.20;76.70;;;;;;8297093;28;20468;-76
2021/05/05 08:59:32;;;;;;;4.33;3.60;;;15.90;70.50;;;;;;8299264;28;21041;-73
2021/05/05 09:03:40;;;;;;;6.60;4.37;;;16.30;65.40;;;;;;8299943;28;20454;-75
2021/05/05 09:07:44;;;;;;;10.60;3.77;;;15.90;67.40;;;;;;8297091;28;20505;-74
2021/05/05 09:11:48;;;;;;;4.97;3.27;;;14.80;63.70;;;;;;8303408;28;20464;-74
2021/05/05 09:16:09;;;;;;;3.63;3.30;;;13.70;71.90;;;;;;8302717;28;20842;-76
2021/05/05 09:20:12;;;;;;;7.40;4.37;;;12.80;75.10;;;;;;8319017;28;20464;-74
2021/05/05 09:24:14;;;;;;;6.80;3.03;;;11.80;80.30;;;;;;8295528;28;20534;-74
2021/05/05 09:28:25;;;;;;;4.60;3.20;;;11.10;84.20;;;;;;8304352;28;20991;-75
2021/05/05 09:32:27;;;;;;;8.17;4.17;;;10.80;87.60;;;;;;8308172;28;20995;-75
2021/05/05 09:36:34;;;;;;;5.97;4.90;;;11.00;87.50;;;;;;8310979;28;20849;-74
2021/05/05 09:40:55;;;;;;;5.00;4.60;;;11.00;87.60;;;;;;8294657;28;20537;-74
2021/05/05 09:45:02;;;;;;;4.23;3.93;;;11.00;86.10;;;;;;8315367;28;20581;-74
2021/05/05 09:49:34;;;;;;;7.73;4.30;;;11.00;86.40;;;;;;8292008;28;20459;-75
2021/05/05 09:53:35;;;;;;;2.63;2.50;;;11.10;87.10;;;;;;8292076;28;20974;-74
2021/05/05 09:57:37;;;;;;;2.07;1.80;;;11.20;85.10;;;;;;8300979;28;20477;-73
2021/05/05 10:01:38;;;;;;;2.60;2.40;;;11.20;82.80;;;;;;8285079;28;20862;-74
2021/05/05 10:05:42;;;;;;;2.30;2.10;;;11.10;82.90;;;;;;8313063;28;20450;-74
2021/05/05 10:09:42;;;;;;;1.80;1.67;;;10.80;83.00;;;;;;8289232;28;20481;-73
2021/05/05 10:13:45;;;;;;;4.97;1.33;;;10.70;83.30;;;;;;8285730;28;20227;-73
2021/05/05 10:17:52;;;;;;;1.40;1.30;;;10.90;83.10;;;;;;8294293;28;20212;-73
2021/05/05 10:21:55;;;;;;;1.50;1.40;;;11.30;82.90;;;;;;8296538;28;20520;-74
2021/05/05 10:25:58;;;;;;;1.57;1.47;;;11.70;81.80;;;;;;8302295;28;20452;-72
2021/05/05 10:30:00;;;;;;;4.77;1.20;;;12.60;78.10;;;;;;8298883;28;20447;-72
2021/05/05 10:34:14;;;;;;;1.93;1.40;;;13.50;75.80;;;;;;8300107;28;20500;-74
2021/05/05 10:38:32;;;;;;;5.90;1.93;;;14.30;72.40;;;;;;8300487;28;20445;-74
2021/05/05 10:42:52;;;;;;;6.53;2.23;;;15.00;68.50;;;;;;8298663;28;20443;-74
2021/05/05 10:47:12;;;;;;;2.70;1.63;;;15.30;67.00;;;;;;8316377;28;20865;-74
2021/05/05 10:51:14;;;;;;;5.50;2.07;;;15.50;66.20;;;;;;8301646;28;20585;-72
2021/05/05 10:55:39;;;;;;;7.57;2.63;;;15.90;62.30;;;;;;8301072;28;20486;-74
2021/05/05 11:00:11;;;;;;;5.40;2.20;;;15.80;63.20;;;;;;8306797;28;20473;-74
2021/05/05 11:04:16;;;;;;;6.83;2.20;;;15.60;60.10;;;;;;8293406;28;21363;-72
2021/05/05 11:08:27;;;;;;;1.93;1.80;;;15.90;60.80;;;;;;8291894;28;21030;-72
2021/05/05 11:12:38;;;;;;;2.77;2.00;;;16.40;60.20;;;;;;8290056;28;20513;-73
2021/05/05 11:17:00;;;;;;;2.70;2.30;;;16.30;57.10;;;;;;8315873;28;20536;-73
2021/05/05 11:21:06;;;;;;;3.23;2.37;;;15.60;58.50;;;;;;8299837;28;20506;-73
2021/05/05 11:25:24;;;;;;;3.80;2.43;;;15.30;63.40;;;;;;8296956;28;20453;-73
2021/05/05 11:29:37;;;;;;;2.30;2.10;;;15.80;62.20;;;;;;8304933;28;20457;-73
2021/05/05 11:33:57;;;;;;;1.90;1.80;;;16.10;59.40;;;;;;8311689;28;20562;-73
2021/05/05 11:38:22;;;;;;;5.50;4.53;;;16.30;57.00;;;;;;8299168;28;20497;-74
2021/05/05 11:42:29;;;;;;;6.07;3.50;;;16.30;53.40;;;;;;8303284;28;20439;-74
2021/05/05 11:46:33;;;;;;;4.33;2.90;;;15.90;56.60;;;;;;8302148;28;20452;-73
2021/05/05 11:50:38;;;;;;;7.33;2.80;;;16.20;55.40;;;;;;8292668;28;20445;-73
2021/05/05 11:54:39;;;;;;;4.40;2.53;;;16.60;54.80;;;;;;8302069;28;20547;-72
2021/05/05 11:58:42;;;;;;;4.50;2.97;;;16.70;53.40;;;;;;8304283;28;20450;-73
2021/05/05 12:02:51;;;;;;;4.30;3.40;;;16.70;52.80;;;;;;8300584;28;20205;-73
2021/05/05 12:07:02;;;;;;;5.23;3.13;;;16.80;52.00;;;;;;8302644;28;20451;-73
2021/05/05 12:11:04;;;;;;;12.60;4.03;;;17.10;53.70;;;;;;8304101;28;20438;-74
2021/05/05 12:15:06;;;;;;;1.80;1.70;;;17.20;52.30;;;;;;8302291;28;20472;-73
2021/05/05 12:19:09;;;;;;;4.43;1.67;;;16.60;53.60;;;;;;8295111;28;20479;-73
2021/05/05 12:23:12;;;;;;;2.00;1.90;;;14.90;57.70;;;;;;8303435;28;20964;-75
2021/05/05 12:27:13;;;;;;;4.00;2.40;;;13.30;63.50;;;;;;8303798;28;20533;-74
2021/05/05 12:31:24;;;;;;;5.67;2.10;;;12.10;65.20;;;;;;8279965;28;20462;-73
2021/05/05 12:35:26;;;;;;;5.80;2.23;;;11.30;68.80;;;;;;8317516;28;20516;-73
2021/05/05 12:39:28;;;;;;;3.57;3.00;;;10.90;69.70;;;;;;8300222;28;20447;-73
2021/05/05 12:43:30;;;;;;;4.90;2.37;;;10.80;70.90;;;;;;8300707;28;20548;-73
2021/05/05 12:47:32;;;;;;;7.97;2.43;;;10.80;72.30;;;;;;8305078;28;20454;-73
2021/05/05 12:51:38;;;;;;;5.80;2.93;;;10.90;73.70;;;;;;8276014;28;21069;-73
2021/05/05 12:55:46;;;;;;;8.10;2.80;;;11.10;71.90;;;;;;8300200;28;20483;-75
2021/05/05 12:59:49;;;;;;;2.57;2.30;;;11.70;71.90;;;;;;8300643;28;20442;-72
2021/05/05 13:03:49;;;;;;;4.10;3.37;;;12.60;70.40;;;;;;8298806;28;20945;-72
2021/05/05 13:07:52;;;;;;;7.33;3.40;;;13.40;67.50;;;;;;8302147;28;20984;-73
2021/05/05 13:12:23;;;;;;;5.00;4.47;;;14.00;66.00;;;;;;8301846;28;20202;-73
2021/05/05 13:33:59;;;;;;;4.70;2.90;;;15.90;58.40;;;;;;8306556;28;21029;-72
2021/05/05 13:38:08;;;;;;;6.00;3.57;;;16.30;58.60;;;;;;8284264;28;20456;-73
2021/05/05 13:42:13;;;;;;;5.73;2.83;;;16.40;56.30;;;;;;8293314;28;20450;-72
2021/05/05 13:46:31;;;;;;;2.37;1.90;;;15.60;53.40;;;;;;8298460;28;20462;-72
2021/05/05 13:50:32;;;;;;;2.20;2.00;;;14.60;55.80;;;;;;8288814;28;20567;-73
2021/05/05 13:54:34;;;;;;;3.47;2.57;;;13.80;55.90;;;;;;8284710;28;20477;-71
2021/05/05 13:58:39;;;;;;;3.47;3.17;;;13.50;56.60;;;;;;8288534;28;20552;-72
2021/05/05 14:02:41;;;;;;;3.53;3.23;;;13.50;57.50;;;;;;8305759;28;20447;-71
2021/05/05 14:06:47;;;;;;;3.87;2.90;;;13.80;57.50;;;;;;8289889;28;20528;-74
2021/05/05 14:10:48;;;;;;;5.07;3.23;;;14.80;55.60;;;;;;8288696;28;20478;-71
2021/05/05 14:14:49;;;;;;;3.57;3.00;;;15.70;54.10;;;;;;8287907;28;20550;-72
2021/05/05 14:18:53;;;;;;;2.67;2.47;;;16.20;52.30;;;;;;8288364;28;20470;-72
2021/05/05 14:22:56;;;;;;;6.17;2.30;;;16.00;50.70;;;;;;8299473;28;20660;-72
2021/05/05 14:26:57;;;;;;;8.83;3.50;;;15.70;52.50;;;;;;8290929;28;20453;-72
2021/05/05 14:30:58;;;;;;;4.43;2.70;;;16.00;53.50;;;;;;8289504;28;20443;-71
2021/05/05 14:35:00;;;;;;;2.90;2.60;;;16.60;50.60;;;;;;8287019;28;20235;-72
2021/05/05 14:39:08;;;;;;;3.87;3.30;;;16.80;49.40;;;;;;8299470;28;20217;-73
2021/05/05 14:43:21;;;;;;;3.60;3.30;;;16.20;50.40;;;;;;8310648;28;20459;-73
2021/05/05 14:48:26;;;;;;;4.80;3.27;;;15.40;53.30;;;;;;8306067;28;20442;-72
2021/05/05 14:51:55;;;;;;;6.80;3.40;;;15.30;54.60;;;;;;8305893;28;20446;-72
2021/05/05 14:55:57;;;;;;;6.67;3.30;;;16.10;52.30;;;;;;8298530;28;20486;-73
2021/05/05 14:59:57;;;;;;;4.50;3.67;;;16.40;50.50;;;;;;8304512;28;20966;-72
2021/05/05 15:04:03;;;;;;;6.47;3.90;;;16.40;48.80;;;;;;8297311;28;20516;-72
2021/05/05 15:08:15;;;;;;;10.10;3.70;;;16.00;49.50;;;;;;8298265;28;20541;-72
2021/05/05 15:12:34;;;;;;;4.17;3.73;;;15.90;49.60;;;;;;8273207;28;20452;-72
2021/05/05 15:38:07;;;;;;;3.73;3.40;;;14.20;51.40;;;;;;8295887;28;20863;-74
2021/05/05 15:42:09;;;;;;;4.13;2.93;;;14.20;52.30;;;;;;8296992;28;20216;-71
2021/05/05 15:46:56;;;;;;;13.87;3.73;;;14.40;52.30;;;;;;8282380;28;20444;-72
2021/05/05 15:50:37;;;;;;;5.60;2.93;;;14.80;51.60;;;;;;8297600;28;20449;-72
2021/05/05 15:54:39;;;;;;;4.10;3.07;;;14.90;50.80;;;;;;8304439;28;20514;-72
2021/05/05 15:58:49;;;;;;;30.93;4.10;;;14.90;51.10;;;;;;8293346;28;20456;-72
2021/05/05 16:03:11;;;;;;;5.00;2.70;;;14.70;51.60;;;;;;8293970;28;20452;-72
2021/05/05 16:15:37;;;;;;;4.87;3.17;;;14.50;48.10;;;;;;8298936;28;20473;-71
2021/05/05 16:19:46;;;;;;;8.47;3.40;;;14.10;51.20;;;;;;8289993;28;20473;-71
2021/05/05 16:24:14;;;;;;;3.67;3.37;;;13.60;52.90;;;;;;8309273;28;20484;-70
2021/05/05 16:50:54;;;;;;;6.23;3.20;;;13.10;57.10;;;;;;8273709;28;20523;-72
2021/05/05 16:54:40;;;;;;;5.60;3.70;;;13.20;54.90;;;;;;8264551;28;20467;-72
2021/05/05 17:07:31;;;;;;;10.10;3.67;;;14.10;52.70;;;;;;8314726;28;20532;-70
2021/05/05 17:11:32;;;;;;;6.50;3.97;;;14.40;52.30;;;;;;8293336;28;20441;-72
2021/05/05 17:15:39;;;;;;;4.37;3.90;;;14.50;52.10;;;;;;8307878;28;20491;-72
2021/05/05 17:19:49;;;;;;;4.90;4.10;;;14.50;52.60;;;;;;8301817;28;20467;-72
2021/05/05 17:23:54;;;;;;;4.57;4.23;;;14.50;53.40;;;;;;8292341;28;20848;-71
2021/05/05 17:28:32;;;;;;;8.73;3.80;;;14.20;53.70;;;;;;8296153;28;20441;-72
2021/05/05 18:15:32;;;;;;;4.20;3.73;;;13.00;62.30;;;;;;8305621;28;21263;-72
2021/05/05 18:19:40;;;;;;;3.43;3.13;;;12.80;62.40;;;;;;8313348;28;20460;-71
2021/05/05 18:23:49;;;;;;;5.53;4.00;;;12.70;63.10;;;;;;8311526;28;20446;-71
2021/05/05 18:32:29;;;;;;;6.60;4.30;;;12.30;63.70;;;;;;8261792;28;20438;-71
2021/05/05 18:36:32;;;;;;;5.87;4.30;;;12.00;66.50;;;;;;8293251;28;20485;-72
2021/05/05 18:40:46;;;;;;;5.83;5.10;;;11.80;67.40;;;;;;8318031;28;20263;-71
2021/05/05 19:50:03;;;;;;;4.20;3.30;;;10.70;62.60;;;;;;8309627;28;20914;-73
2021/05/05 21:12:08;;;;;;;8.13;3.97;;;9.90;75.10;;;;;;8217703;28;20931;-71
2021/05/05 23:25:30;;;;;;;3.20;3.00;;;8.40;84.10;;;;;;8324809;28;20477;-72
2021/05/05 23:29:46;;;;;;;4.20;2.40;;;8.40;84.40;;;;;;8320552;28;20439;-72
